createdAt,value
2022-10-05T00:00:48.011Z,100902.84
2022-10-05T00:05:49.648Z,100896.94
2022-10-05T00:10:51.981Z,100905.53
2022-10-05T00:16:04.741Z,100908.09
2022-10-05T00:21:18.404Z,100909.06
2022-10-05T00:26:23.003Z,100916.75
2022-10-05T00:31:29.377Z,100925.28
2022-10-05T00:36:31.410Z,100926.19
2022-10-05T00:41:52.161Z,100923.72
2022-10-05T00:46:56.666Z,100927.19
2022-10-05T00:52:20.354Z,100933.16
2022-10-05T00:57:30.480Z,100927.28
2022-10-05T01:03:10.754Z,100929.88
2022-10-05T01:08:12.214Z,100931.59
2022-10-05T01:13:41.235Z,100920.66
2022-10-05T01:19:14.216Z,100920.81
2022-10-05T01:24:30.888Z,100917.56
2022-10-05T01:29:53.539Z,100911.75
2022-10-05T01:35:18.929Z,100896.56
2022-10-05T01:40:49.806Z,100885.50
2022-10-05T01:46:06.845Z,100888.81
2022-10-05T01:51:27.104Z,100884.69
2022-10-05T01:56:42.556Z,100889.81
2022-10-05T02:02:05.096Z,100885.59
2022-10-05T02:07:14.599Z,100894.00
2022-10-05T02:12:20.633Z,100909.13
2022-10-05T02:17:36.591Z,100907.41
2022-10-05T02:22:43.717Z,100907.41
2022-10-05T02:28:04.253Z,100907.41
2022-10-05T02:33:15.665Z,100908.38
2022-10-05T02:38:44.835Z,100916.09
2022-10-05T02:44:24.166Z,100922.94
2022-10-05T02:49:28.513Z,100916.25
2022-10-05T02:54:54.045Z,100911.19
2022-10-05T03:00:04.071Z,100906.09
2022-10-05T03:05:17.465Z,100894.25
2022-10-05T03:10:59.624Z,100879.88
2022-10-05T03:16:25.989Z,100876.44
2022-10-05T03:21:48.710Z,100870.66
2022-10-05T03:27:03.602Z,100869.19
2022-10-05T03:32:30.000Z,100865.88
2022-10-05T03:37:37.470Z,100855.81
2022-10-05T03:43:16.741Z,100867.72
2022-10-05T03:48:35.883Z,100861.00
2022-10-05T03:53:52.723Z,100850.94
2022-10-05T03:59:09.146Z,100850.13
2022-10-05T04:04:19.056Z,100845.81
2022-10-05T04:09:23.432Z,100842.31
2022-10-05T04:14:32.345Z,100843.81
2022-10-05T04:19:57.263Z,100848.03
2022-10-05T04:25:06.507Z,100852.28
2022-10-05T04:30:19.404Z,100853.22
2022-10-05T04:35:42.553Z,100869.31
2022-10-05T04:41:12.045Z,100872.69
2022-10-05T04:46:36.679Z,100876.81
2022-10-05T04:51:51.032Z,100876.88
2022-10-05T04:56:57.629Z,100881.97
2022-10-05T05:02:24.399Z,100882.81
2022-10-05T05:07:49.303Z,100876.09
2022-10-05T05:13:09.355Z,100875.22
2022-10-05T05:18:39.348Z,100875.97
2022-10-05T05:24:08.413Z,100881.88
2022-10-05T05:29:30.161Z,100891.09
2022-10-05T05:34:37.608Z,100888.56
2022-10-05T05:40:13.993Z,100891.78
2022-10-05T05:45:32.039Z,100900.78
2022-10-05T05:50:48.842Z,100899.88
2022-10-05T05:55:56.118Z,100906.41
2022-10-05T06:01:00.933Z,100917.84
2022-10-05T06:06:09.230Z,100928.50
2022-10-05T06:11:26.973Z,100926.44
2022-10-05T06:16:45.919Z,100930.16
2022-10-05T06:21:56.385Z,100939.44
2022-10-05T06:27:26.561Z,100936.03
2022-10-05T06:32:31.023Z,100939.56
2022-10-05T06:37:55.372Z,100938.84
2022-10-05T06:43:18.359Z,100945.84
2022-10-05T06:48:41.758Z,100946.31
2022-10-05T06:54:10.875Z,100939.16
2022-10-05T06:59:42.523Z,100940.63
2022-10-05T07:05:19.025Z,100939.06
2022-10-05T07:10:52.466Z,100943.34
2022-10-05T07:15:59.191Z,100937.78
2022-10-05T07:21:23.414Z,100933.78
2022-10-05T07:26:45.807Z,100935.72
2022-10-05T07:32:15.667Z,100941.59
2022-10-05T07:37:50.606Z,100928.25
2022-10-05T07:42:52.739Z,100940.41
2022-10-05T07:48:33.205Z,100925.25
2022-10-05T07:53:40.647Z,100912.00
2022-10-05T07:58:51.357Z,100924.06
2022-10-05T08:04:17.771Z,100922.41
2022-10-05T08:09:29.443Z,100914.03
2022-10-05T08:14:46.071Z,100904.06
2022-10-05T08:19:56.314Z,100909.00
2022-10-05T08:25:08.980Z,100901.88
2022-10-05T08:30:14.039Z,100897.03
2022-10-05T08:35:31.082Z,100897.47
2022-10-05T08:40:53.896Z,100889.50
2022-10-05T08:46:17.724Z,100892.16
2022-10-05T08:51:37.333Z,100887.53
2022-10-05T08:57:15.794Z,100881.78
2022-10-05T09:02:28.177Z,100876.78
2022-10-05T09:07:38.308Z,100868.88
2022-10-05T09:12:58.566Z,100867.56
2022-10-05T09:18:16.131Z,100860.69
2022-10-05T09:23:36.007Z,100854.31
2022-10-05T09:29:11.093Z,100858.22
2022-10-05T09:34:25.174Z,100845.28
2022-10-05T09:39:26.599Z,100845.09
2022-10-05T09:44:51.338Z,100836.19
2022-10-05T09:50:15.076Z,100830.09
2022-10-05T09:55:47.588Z,100823.22
2022-10-05T10:00:58.819Z,100821.59
2022-10-05T10:06:36.353Z,100811.22
2022-10-05T10:11:43.653Z,100810.41
2022-10-05T10:17:31.580Z,100796.56
2022-10-05T10:23:10.538Z,100788.31
2022-10-05T10:28:53.196Z,100783.47
2022-10-05T10:34:42.707Z,100784.47
2022-10-05T10:40:09.492Z,100773.53
2022-10-05T10:45:44.108Z,100773.00
2022-10-05T10:51:01.039Z,100773.47
2022-10-05T10:56:26.649Z,100774.41
2022-10-05T11:01:47.667Z,100767.75
2022-10-05T11:07:21.030Z,100768.72
2022-10-05T11:12:45.219Z,100767.88
2022-10-05T11:18:16.271Z,100771.44
2022-10-05T11:23:38.593Z,100757.34
2022-10-05T11:28:54.245Z,100748.25
2022-10-05T11:34:17.939Z,100736.19
2022-10-05T11:39:41.057Z,100730.16
2022-10-05T11:45:15.776Z,100723.41
2022-10-05T11:50:39.738Z,100723.31
2022-10-05T11:55:57.729Z,100716.72
2022-10-05T12:01:15.023Z,100701.19
2022-10-05T12:06:53.186Z,100701.31
2022-10-05T12:12:09.903Z,100695.81
2022-10-05T12:17:18.312Z,100680.50
2022-10-05T12:22:27.972Z,100682.78
2022-10-05T12:27:40.818Z,100677.59
2022-10-05T12:32:48.225Z,100676.63
2022-10-05T12:37:58.549Z,100674.16
2022-10-05T12:43:14.929Z,100662.78
2022-10-05T12:48:25.292Z,100665.78
2022-10-05T12:53:38.291Z,100667.81
2022-10-05T12:59:04.636Z,100651.63
2022-10-05T13:04:32.615Z,100652.31
2022-10-05T13:09:42.227Z,100653.72
2022-10-05T13:15:01.791Z,100649.00
2022-10-05T13:20:24.377Z,100647.25
2022-10-05T13:25:32.526Z,100645.09
2022-10-05T13:30:36.267Z,100641.53
2022-10-05T13:35:52.859Z,100633.97
2022-10-05T13:41:40.023Z,100628.34
2022-10-05T13:46:46.462Z,100629.66
2022-10-05T13:52:24.932Z,100628.47
2022-10-05T13:57:45.252Z,100621.19
2022-10-05T14:02:53.097Z,100623.81
2022-10-05T14:07:56.016Z,100618.91
2022-10-05T14:13:03.354Z,100619.28
2022-10-05T14:18:25.762Z,100616.81
2022-10-05T14:23:27.683Z,100613.78
2022-10-05T14:28:33.400Z,100627.19
2022-10-05T14:33:38.743Z,100621.84
2022-10-05T14:39:05.040Z,100610.75
2022-10-05T14:44:09.220Z,100611.84
2022-10-05T14:49:27.016Z,100611.41
2022-10-05T14:54:57.097Z,100599.47
2022-10-05T15:00:08.656Z,100603.84
2022-10-05T15:05:15.975Z,100601.66
2022-10-05T15:10:43.033Z,100600.94
2022-10-05T15:15:54.587Z,100598.91
2022-10-05T15:21:09.041Z,100596.97
2022-10-05T15:26:39.409Z,100595.91
2022-10-05T15:31:52.439Z,100594.78
2022-10-05T15:37:15.054Z,100595.44
2022-10-05T15:42:20.014Z,100598.16
2022-10-05T15:47:53.024Z,100591.94
2022-10-05T15:53:31.729Z,100589.69
2022-10-05T15:58:53.192Z,100598.50
2022-10-05T16:04:04.640Z,100591.47
2022-10-05T16:09:25.802Z,100595.66
2022-10-05T16:14:59.821Z,100590.75
2022-10-05T16:20:16.478Z,100583.13
2022-10-05T16:25:35.447Z,100587.88
2022-10-05T16:30:58.724Z,100599.06
2022-10-05T16:36:24.895Z,100592.00
2022-10-05T16:41:35.003Z,100599.78
2022-10-05T16:46:50.475Z,100611.94
2022-10-05T16:52:15.943Z,100612.72
2022-10-05T16:57:22.613Z,100619.31
2022-10-05T17:02:27.215Z,100628.53
2022-10-05T17:07:39.339Z,100643.28
2022-10-05T17:13:25.376Z,100651.03
2022-10-05T17:18:55.662Z,100666.31
2022-10-05T17:24:26.356Z,100670.47
2022-10-05T17:29:51.832Z,100677.13
2022-10-05T17:35:00.601Z,100684.38
2022-10-05T17:40:32.570Z,100694.19
2022-10-05T17:45:33.914Z,100697.47
2022-10-05T17:50:57.807Z,100710.34
2022-10-05T17:56:05.258Z,100710.22
2022-10-05T18:01:17.095Z,100723.19
2022-10-05T18:06:37.589Z,100737.28
2022-10-05T18:11:41.705Z,100742.78
2022-10-05T18:17:10.297Z,100756.03
2022-10-05T18:22:15.518Z,100761.59
2022-10-05T18:27:49.415Z,100770.78
2022-10-05T18:33:17.425Z,100789.09
2022-10-05T18:38:52.870Z,100794.53
2022-10-05T18:44:14.392Z,100807.28
2022-10-05T18:49:53.658Z,100811.00
2022-10-05T18:55:33.574Z,100816.31
2022-10-05T19:01:03.339Z,100826.50
2022-10-05T19:06:08.333Z,100832.72
2022-10-05T19:11:34.342Z,100832.81
2022-10-05T19:17:02.891Z,100838.03
2022-10-05T19:22:22.462Z,100845.06
2022-10-05T19:28:15.471Z,100846.28
2022-10-05T19:33:30.444Z,100848.22
2022-10-05T19:38:44.560Z,100862.94
2022-10-05T19:44:13.773Z,100870.03
2022-10-05T19:49:48.861Z,100887.69
2022-10-05T19:55:12.499Z,100890.97
2022-10-05T20:00:23.917Z,100901.03
2022-10-05T20:05:25.414Z,100907.63
2022-10-05T20:10:29.452Z,100912.13
2022-10-05T20:15:51.911Z,100904.97
2022-10-05T20:20:53.566Z,100926.88
2022-10-05T20:26:13.632Z,100933.34
2022-10-05T20:31:16.219Z,100936.28
2022-10-05T20:36:17.716Z,100949.44
2022-10-05T20:41:19.229Z,100955.63
2022-10-05T20:46:20.672Z,100957.41
2022-10-05T20:51:24.654Z,100968.66
2022-10-05T20:56:26.927Z,100969.63
2022-10-05T21:01:29.910Z,100973.72
2022-10-05T21:06:31.569Z,100984.50
2022-10-05T21:11:32.950Z,100995.22
2022-10-05T21:16:37.737Z,100997.06
2022-10-05T21:21:43.828Z,100995.50
2022-10-05T21:26:45.333Z,101010.38
2022-10-05T21:31:46.865Z,101003.22
2022-10-05T21:36:48.392Z,101007.19
2022-10-05T21:41:50.007Z,101003.56
2022-10-05T21:46:52.064Z,101010.59
2022-10-05T21:51:54.345Z,101016.19
2022-10-05T21:56:57.429Z,101016.63
2022-10-05T22:01:59.570Z,101021.44
2022-10-05T22:07:01.213Z,101033.22
2022-10-05T22:12:02.827Z,101020.84
2022-10-05T22:17:04.607Z,101037.47
2022-10-05T22:22:11.136Z,101039.28
2022-10-05T22:27:13.642Z,101041.44
2022-10-05T22:32:15.059Z,101038.22
2022-10-05T22:37:16.809Z,101035.41
2022-10-05T22:42:19.392Z,101041.56
2022-10-05T22:47:20.795Z,101046.53
2022-10-05T22:52:22.294Z,101058.88
2022-10-05T22:57:23.919Z,101062.31
2022-10-05T23:02:25.390Z,101067.69
2022-10-05T23:07:26.896Z,101087.66
2022-10-05T23:12:28.396Z,101094.84
2022-10-05T23:17:30.893Z,101103.31
2022-10-05T23:22:36.367Z,101113.13
2022-10-05T23:27:39.159Z,101117.06
2022-10-05T23:32:42.130Z,101132.47
2022-10-05T23:37:44.902Z,101133.34
2022-10-05T23:42:47.007Z,101145.22
2022-10-05T23:47:48.469Z,101149.16
2022-10-05T23:52:50.021Z,101150.94
2022-10-05T23:57:51.448Z,101162.63
